createdAt,value
2023-03-30T00:04:00.809Z,4.85
2023-03-30T00:09:06.174Z,4.30
2023-03-30T00:14:08.284Z,5.45
2023-03-30T00:19:10.694Z,4.97
2023-03-30T00:24:12.793Z,5.93
2023-03-30T00:29:14.833Z,5.07
2023-03-30T00:34:17.425Z,4.13
2023-03-30T00:39:22.964Z,5.28
2023-03-30T00:45:02.267Z,4.25
2023-03-30T00:50:05.782Z,4.07
2023-03-30T00:55:09.924Z,4.32
2023-03-30T01:00:12.664Z,4.55
2023-03-30T01:05:14.757Z,5.15
2023-03-30T01:10:17.616Z,5.38
2023-03-30T01:15:20.893Z,5.22
2023-03-30T01:20:53.343Z,5.72
2023-03-30T01:26:10.130Z,4.38
2023-03-30T01:31:29.119Z,4.30
2023-03-30T01:36:48.598Z,4.90
2023-03-30T01:42:28.005Z,4.70
2023-03-30T01:47:38.522Z,4.90
2023-03-30T01:52:58.988Z,5.18
2023-03-30T01:58:20.401Z,5.07
2023-03-30T02:03:30.399Z,5.97
2023-03-30T02:08:35.664Z,4.35
2023-03-30T02:18:41.445Z,4.38
2023-03-30T02:23:46.435Z,5.43
2023-03-30T02:28:50.023Z,4.87
2023-03-30T02:34:08.886Z,5.63
2023-03-30T02:39:27.932Z,4.97
2023-03-30T02:45:03.344Z,5.43
2023-03-30T02:50:33.276Z,5.68
2023-03-30T02:55:53.991Z,5.70
2023-03-30T03:01:09.782Z,5.63
2023-03-30T03:06:23.872Z,5.00
2023-03-30T03:11:28.917Z,5.65
2023-03-30T03:16:31.048Z,5.80
2023-03-30T03:21:59.594Z,4.80
2023-03-30T03:27:04.610Z,4.73
2023-03-30T03:32:17.142Z,5.00
2023-03-30T03:37:22.687Z,5.43
2023-03-30T03:42:24.855Z,5.20
2023-03-30T03:47:37.756Z,4.35
2023-03-30T03:52:39.949Z,5.22
2023-03-30T03:57:42.287Z,5.50
2023-03-30T04:02:45.217Z,5.07
2023-03-30T04:07:48.312Z,5.20
2023-03-30T04:12:50.529Z,5.10
2023-03-30T04:18:15.575Z,5.85
2023-03-30T04:23:45.807Z,4.82
2023-03-30T04:28:54.504Z,4.80
2023-03-30T04:34:15.006Z,4.43
2023-03-30T04:39:36.012Z,4.93
2023-03-30T04:45:07.484Z,5.72
2023-03-30T04:50:22.438Z,4.57
2023-03-30T04:55:47.395Z,4.93
2023-03-30T05:01:08.928Z,5.47
2023-03-30T05:06:31.411Z,5.40
2023-03-30T05:11:57.881Z,6.25
2023-03-30T05:17:09.577Z,4.60
2023-03-30T05:22:35.341Z,5.43
2023-03-30T05:28:06.966Z,4.60
2023-03-30T05:33:35.827Z,5.30
2023-03-30T05:38:58.267Z,5.05
2023-03-30T05:44:22.351Z,5.63
2023-03-30T05:49:53.744Z,5.85
2023-03-30T06:00:36.689Z,4.93
2023-03-30T06:05:53.527Z,5.20
2023-03-30T06:10:56.736Z,5.47
2023-03-30T06:16:03.440Z,6.75
2023-03-30T06:21:07.510Z,5.78
2023-03-30T06:26:23.685Z,5.68
2023-03-30T06:31:27.083Z,5.13
2023-03-30T06:36:55.210Z,5.85
2023-03-30T06:41:59.686Z,4.63
2023-03-30T06:47:20.668Z,5.60
2023-03-30T06:52:22.843Z,5.10
2023-03-30T06:57:25.319Z,6.30
2023-03-30T07:02:27.634Z,6.10
2023-03-30T07:07:47.717Z,5.90
2023-03-30T07:12:49.877Z,4.13
2023-03-30T07:17:53.568Z,3.80
2023-03-30T07:22:55.757Z,4.22
2023-03-30T07:27:58.779Z,4.00
2023-03-30T07:33:01.303Z,4.20
2023-03-30T07:38:04.132Z,4.95
2023-03-30T07:43:12.461Z,4.90
2023-03-30T07:48:15.821Z,5.20
2023-03-30T07:53:17.913Z,6.13
2023-03-30T07:58:22.881Z,6.38
2023-03-30T08:03:25.415Z,5.43
2023-03-30T08:08:28.310Z,4.47
2023-03-30T08:13:32.829Z,5.38
2023-03-30T08:18:37.080Z,5.53
2023-03-30T08:23:39.131Z,6.22
2023-03-30T08:28:41.357Z,5.72
2023-03-30T08:33:43.539Z,4.97
2023-03-30T08:38:46.276Z,5.80
2023-03-30T08:44:37.073Z,5.05
2023-03-30T08:49:59.697Z,5.20
2023-03-30T08:55:04.457Z,6.68
2023-03-30T09:00:22.070Z,5.13
2023-03-30T09:05:37.495Z,6.40
2023-03-30T09:10:44.214Z,5.70
2023-03-30T09:15:52.430Z,5.05
2023-03-30T09:20:57.341Z,5.07
2023-03-30T09:26:32.602Z,5.63
2023-03-30T09:31:49.065Z,5.65
2023-03-30T09:37:03.207Z,6.05
2023-03-30T09:42:36.424Z,4.82
2023-03-30T09:47:39.801Z,5.15
2023-03-30T09:52:54.016Z,4.68
2023-03-30T09:58:19.182Z,5.07
2023-03-30T10:03:23.491Z,4.72
2023-03-30T10:08:25.895Z,5.25
2023-03-30T10:13:33.147Z,4.78
2023-03-30T10:18:41.361Z,5.45
2023-03-30T10:23:47.248Z,5.15
2023-03-30T10:34:01.668Z,4.20
2023-03-30T10:39:30.428Z,4.30
2023-03-30T10:44:37.169Z,4.57
2023-03-30T10:50:14.286Z,3.78
2023-03-30T10:55:29.780Z,4.65
2023-03-30T11:00:57.684Z,4.25
2023-03-30T11:06:07.377Z,4.68
2023-03-30T11:11:18.379Z,4.25
2023-03-30T11:16:39.804Z,4.68
2023-03-30T11:21:51.201Z,5.47
2023-03-30T11:26:59.798Z,5.65
2023-03-30T11:32:23.548Z,6.07
2023-03-30T11:37:38.088Z,4.85
2023-03-30T11:42:40.300Z,4.22
2023-03-30T11:48:02.619Z,5.50
2023-03-30T11:53:10.515Z,4.75
2023-03-30T11:58:34.609Z,5.40
2023-03-30T12:03:51.800Z,4.25
2023-03-30T12:09:27.742Z,5.10
2023-03-30T12:14:46.012Z,4.90
2023-03-30T12:19:56.706Z,4.45
2023-03-30T12:25:22.997Z,4.43
2023-03-30T12:30:41.792Z,4.55
2023-03-30T12:35:49.769Z,4.10
2023-03-30T12:41:03.805Z,4.25
2023-03-30T12:46:20.363Z,4.55
2023-03-30T12:51:59.166Z,3.60
2023-03-30T12:57:39.473Z,4.70
2023-03-30T13:03:15.690Z,3.90
2023-03-30T13:08:27.169Z,4.47
2023-03-30T13:13:51.285Z,4.57
2023-03-30T13:18:55.624Z,5.25
2023-03-30T13:24:04.382Z,5.03
2023-03-30T13:29:11.494Z,4.70
2023-03-30T13:34:34.973Z,3.95
2023-03-30T13:39:41.129Z,5.57
2023-03-30T13:44:47.084Z,5.07
2023-03-30T13:50:00.001Z,3.80
2023-03-30T13:55:04.680Z,4.47
2023-03-30T14:00:10.539Z,5.22
2023-03-30T14:10:19.780Z,4.25
2023-03-30T14:15:42.360Z,4.07
2023-03-30T14:21:02.999Z,4.25
2023-03-30T14:26:13.108Z,4.93
2023-03-30T14:31:21.172Z,3.88
2023-03-30T14:36:23.522Z,3.90
2023-03-30T14:41:27.987Z,4.25
2023-03-30T14:46:42.818Z,5.00
2023-03-30T14:51:48.243Z,3.45
2023-03-30T14:57:00.298Z,5.25
2023-03-30T15:02:03.638Z,5.55
2023-03-30T15:07:05.712Z,4.03
2023-03-30T15:12:08.523Z,3.95
2023-03-30T15:17:23.293Z,3.40
2023-03-30T15:22:25.677Z,3.80
2023-03-30T15:27:28.294Z,4.43
2023-03-30T15:32:38.624Z,4.32
2023-03-30T15:38:00.955Z,3.90
2023-03-30T15:43:23.175Z,3.83
2023-03-30T15:48:43.085Z,3.75
2023-03-30T15:54:13.794Z,3.95
2023-03-30T15:59:19.188Z,3.38
2023-03-30T16:04:23.750Z,3.80
2023-03-30T16:09:25.964Z,6.25
2023-03-30T16:14:31.071Z,3.78
2023-03-30T16:19:33.360Z,4.33
2023-03-30T16:24:36.244Z,3.63
2023-03-30T16:29:38.385Z,3.67
2023-03-30T16:34:43.088Z,3.88
2023-03-30T16:39:46.771Z,4.25
2023-03-30T16:44:48.837Z,3.85
2023-03-30T16:49:51.919Z,4.18
2023-03-30T16:54:53.968Z,2.80
2023-03-30T16:59:56.033Z,2.72
2023-03-30T17:04:58.095Z,2.28
2023-03-30T17:10:00.734Z,2.10
2023-03-30T17:15:02.840Z,2.05
2023-03-30T17:20:22.421Z,2.22
2023-03-30T17:25:26.583Z,2.35
2023-03-30T17:30:34.396Z,2.38
2023-03-30T17:35:38.403Z,3.63
2023-03-30T17:40:40.999Z,2.20
2023-03-30T17:45:44.648Z,2.40
2023-03-30T17:50:49.784Z,3.10
2023-03-30T17:55:53.081Z,3.13
2023-03-30T18:00:55.711Z,2.20
2023-03-30T18:05:59.600Z,2.83
2023-03-30T18:11:01.934Z,2.80
2023-03-30T18:16:04.058Z,2.83
2023-03-30T18:21:06.912Z,2.90
2023-03-30T18:26:12.782Z,2.75
2023-03-30T18:36:18.771Z,3.58
2023-03-30T18:41:20.972Z,2.28
2023-03-30T18:46:23.162Z,2.20
2023-03-30T18:51:25.434Z,2.60
2023-03-30T18:56:27.623Z,2.47
2023-03-30T19:01:30.615Z,3.78
2023-03-30T19:06:32.685Z,3.70
2023-03-30T19:11:34.780Z,2.72
2023-03-30T19:16:36.884Z,2.92
2023-03-30T19:21:38.940Z,2.03
2023-03-30T19:26:41.494Z,3.03
2023-03-30T19:31:43.658Z,1.73
2023-03-30T19:36:45.905Z,2.20
2023-03-30T19:41:47.988Z,1.95
2023-03-30T19:46:50.124Z,2.38
2023-03-30T19:51:53.030Z,2.85
2023-03-30T19:56:55.222Z,4.35
2023-03-30T20:01:57.386Z,5.60
2023-03-30T20:07:02.826Z,5.07
2023-03-30T20:12:05.320Z,5.88
2023-03-30T20:17:10.362Z,6.07
2023-03-30T20:22:12.421Z,5.80
2023-03-30T20:27:14.779Z,6.47
2023-03-30T20:32:17.466Z,7.85
2023-03-30T20:37:19.728Z,6.55
2023-03-30T20:42:26.398Z,7.00
2023-03-30T20:47:30.985Z,8.38
2023-03-30T20:52:33.404Z,6.82
2023-03-30T20:57:35.489Z,6.88
2023-03-30T21:02:37.564Z,7.15
2023-03-30T21:07:42.347Z,7.93
2023-03-30T21:12:44.415Z,6.03
2023-03-30T21:17:46.529Z,7.43
2023-03-30T21:22:48.548Z,7.68
2023-03-30T21:27:50.827Z,8.73
2023-03-30T21:32:52.911Z,7.10
2023-03-30T21:37:55.268Z,7.50
2023-03-30T21:42:57.475Z,8.32
2023-03-30T21:47:59.667Z,7.40
2023-03-30T21:53:01.965Z,7.07
2023-03-30T21:58:04.036Z,8.48
2023-03-30T22:03:06.193Z,7.72
2023-03-30T22:08:10.030Z,8.40
2023-03-30T22:13:12.313Z,9.80
2023-03-30T22:18:14.343Z,10.20
2023-03-30T22:23:16.707Z,10.68
2023-03-30T22:28:18.814Z,9.68
2023-03-30T22:33:21.109Z,10.10
2023-03-30T22:38:23.393Z,12.05
2023-03-30T22:43:25.509Z,10.05
2023-03-30T22:48:27.613Z,10.40
2023-03-30T22:53:31.269Z,9.00
2023-03-30T22:58:34.542Z,9.52
2023-03-30T23:03:37.183Z,9.43
2023-03-30T23:08:39.447Z,9.80
2023-03-30T23:13:42.880Z,9.50
2023-03-30T23:18:44.967Z,8.02
2023-03-30T23:23:47.391Z,9.35
2023-03-30T23:28:49.512Z,8.85
2023-03-30T23:33:51.832Z,8.02
2023-03-30T23:38:56.781Z,9.73
2023-03-30T23:43:58.827Z,8.90
2023-03-30T23:49:03.351Z,8.57
2023-03-30T23:54:07.106Z,8.70
2023-03-30T23:59:10.961Z,8.43
